createdAt,value
2023-02-09T00:01:49.927Z,101926.28
2023-02-09T00:04:51.925Z,101920.13
2023-02-09T00:07:53.852Z,101914.94
2023-02-09T00:10:56.141Z,101911.41
2023-02-09T00:13:57.947Z,101904.59
2023-02-09T00:17:01.860Z,101895.31
2023-02-09T00:20:05.567Z,101899.00
2023-02-09T00:23:07.790Z,101893.66
2023-02-09T00:26:11.626Z,101904.03
2023-02-09T00:29:17.373Z,101896.22
2023-02-09T00:32:19.416Z,101892.63
2023-02-09T00:35:21.386Z,101888.28
2023-02-09T00:38:23.186Z,101889.34
2023-02-09T00:42:04.057Z,101889.47
2023-02-09T00:45:06.469Z,101870.97
2023-02-09T00:48:08.404Z,101882.88
2023-02-09T00:51:10.405Z,101876.34
2023-02-09T00:54:13.510Z,101882.09
2023-02-09T00:57:15.450Z,101872.16
2023-02-09T01:00:18.121Z,101871.28
2023-02-09T01:03:21.305Z,101873.84
2023-02-09T01:06:23.330Z,101866.88
2023-02-09T01:09:25.487Z,101864.22
2023-02-09T01:12:27.531Z,101868.38
2023-02-09T01:15:29.374Z,101869.16
2023-02-09T01:18:31.334Z,101860.38
2023-02-09T01:21:33.315Z,101878.91
2023-02-09T01:24:36.191Z,101865.75
2023-02-09T01:27:38.216Z,101858.66
2023-02-09T01:30:40.799Z,101859.09
2023-02-09T01:33:42.814Z,101859.63
2023-02-09T01:36:45.458Z,101855.56
2023-02-09T01:39:47.726Z,101856.50
2023-02-09T01:42:49.694Z,101853.28
2023-02-09T01:45:56.691Z,101846.16
2023-02-09T01:49:13.709Z,101842.88
2023-02-09T01:52:21.145Z,101838.38
2023-02-09T01:55:27.883Z,101834.47
2023-02-09T01:58:31.234Z,101833.97
2023-02-09T02:01:33.502Z,101830.56
2023-02-09T02:04:35.972Z,101829.81
2023-02-09T02:07:54.135Z,101828.03
2023-02-09T02:10:57.298Z,101827.28
2023-02-09T02:13:59.459Z,101832.19
2023-02-09T02:17:09.049Z,101817.75
2023-02-09T02:20:50.013Z,101828.69
2023-02-09T02:24:35.938Z,101826.06
2023-02-09T02:27:56.252Z,101826.41
2023-02-09T02:31:09.956Z,101820.75
2023-02-09T02:34:43.016Z,101814.03
2023-02-09T02:37:56.112Z,101826.41
2023-02-09T02:41:14.832Z,101819.75
2023-02-09T02:44:18.882Z,101814.03
2023-02-09T02:47:22.661Z,101813.28
2023-02-09T02:50:30.723Z,101806.81
2023-02-09T02:53:36.582Z,101815.09
2023-02-09T02:56:43.554Z,101815.75
2023-02-09T03:00:19.225Z,101808.31
2023-02-09T03:03:27.124Z,101815.13
2023-02-09T03:06:33.034Z,101821.00
2023-02-09T03:09:35.497Z,101818.22
2023-02-09T03:12:57.976Z,101809.03
2023-02-09T03:16:19.163Z,101805.31
2023-02-09T03:19:41.025Z,101813.31
2023-02-09T03:22:48.282Z,101816.88
2023-02-09T03:25:54.249Z,101814.16
2023-02-09T03:28:59.062Z,101818.41
2023-02-09T03:32:01.137Z,101812.28
2023-02-09T03:35:03.609Z,101804.09
2023-02-09T03:38:06.689Z,101806.41
2023-02-09T03:41:09.004Z,101798.88
2023-02-09T03:44:26.553Z,101794.53
2023-02-09T03:47:28.414Z,101798.31
2023-02-09T03:50:33.240Z,101788.81
2023-02-09T03:53:36.527Z,101789.38
2023-02-09T03:56:38.469Z,101779.56
2023-02-09T03:59:40.391Z,101782.06
2023-02-09T04:02:43.048Z,101785.38
2023-02-09T04:05:44.954Z,101778.81
2023-02-09T04:08:47.220Z,101775.41
2023-02-09T04:11:49.798Z,101787.09
2023-02-09T04:14:51.726Z,101782.09
2023-02-09T04:17:53.562Z,101784.66
2023-02-09T04:20:56.725Z,101780.78
2023-02-09T04:23:58.723Z,101789.25
2023-02-09T04:27:00.583Z,101781.44
2023-02-09T04:30:02.520Z,101779.34
2023-02-09T04:33:04.598Z,101775.22
2023-02-09T04:36:07.423Z,101779.84
2023-02-09T04:39:09.519Z,101769.38
2023-02-09T04:42:11.479Z,101773.38
2023-02-09T04:45:13.549Z,101777.50
2023-02-09T04:48:17.901Z,101771.41
2023-02-09T04:51:20.013Z,101766.34
2023-02-09T04:54:21.871Z,101757.19
2023-02-09T04:57:42.305Z,101764.28
2023-02-09T05:00:44.770Z,101761.09
2023-02-09T05:03:47.311Z,101754.72
2023-02-09T05:06:49.223Z,101762.41
2023-02-09T05:09:51.053Z,101756.75
2023-02-09T05:12:52.911Z,101749.81
2023-02-09T05:15:55.497Z,101758.84
2023-02-09T05:18:57.501Z,101754.03
2023-02-09T05:21:59.468Z,101756.19
2023-02-09T05:25:01.358Z,101753.75
2023-02-09T05:28:03.843Z,101751.00
2023-02-09T05:31:06.065Z,101751.06
2023-02-09T05:34:07.925Z,101741.63
2023-02-09T05:37:09.963Z,101750.63
2023-02-09T05:40:13.866Z,101752.75
2023-02-09T05:43:19.267Z,101757.16
2023-02-09T05:46:21.207Z,101760.88
2023-02-09T05:49:23.095Z,101763.00
2023-02-09T05:52:25.553Z,101757.84
2023-02-09T05:55:27.887Z,101759.47
2023-02-09T05:58:29.792Z,101763.78
2023-02-09T06:01:31.853Z,101766.31
2023-02-09T06:04:35.864Z,101754.53
2023-02-09T06:07:37.738Z,101758.97
2023-02-09T06:10:40.414Z,101762.78
2023-02-09T06:13:42.339Z,101765.63
2023-02-09T06:16:45.067Z,101774.25
2023-02-09T06:19:46.918Z,101772.63
2023-02-09T06:22:48.825Z,101771.66
2023-02-09T06:46:44.523Z,101790.53
2023-02-09T06:50:26.469Z,101797.72
2023-02-09T06:53:48.258Z,101796.38
2023-02-09T06:56:50.166Z,101802.84
2023-02-09T06:59:52.122Z,101798.81
2023-02-09T07:02:54.381Z,101800.94
2023-02-09T07:05:56.475Z,101799.91
2023-02-09T07:08:58.433Z,101793.59
2023-02-09T07:12:00.416Z,101791.00
2023-02-09T07:15:02.340Z,101794.75
2023-02-09T07:18:04.835Z,101797.53
2023-02-09T07:21:12.812Z,101795.22
2023-02-09T07:24:14.719Z,101800.50
2023-02-09T07:27:16.555Z,101802.50
2023-02-09T07:30:19.240Z,101802.69
2023-02-09T07:34:03.165Z,101805.25
2023-02-09T07:38:04.830Z,101800.59
2023-02-09T07:41:50.206Z,101802.22
2023-02-09T07:44:52.191Z,101796.84
2023-02-09T07:47:54.030Z,101802.41
2023-02-09T07:51:02.133Z,101802.91
2023-02-09T07:54:05.950Z,101801.06
2023-02-09T07:57:13.547Z,101805.66
2023-02-09T08:00:16.354Z,101799.94
2023-02-09T08:03:23.238Z,101799.94
2023-02-09T08:06:40.735Z,101797.47
2023-02-09T08:09:45.177Z,101798.91
2023-02-09T08:12:59.800Z,101792.41
2023-02-09T08:16:06.584Z,101793.84
2023-02-09T08:19:16.981Z,101792.34
2023-02-09T08:22:19.802Z,101791.09
2023-02-09T08:25:24.153Z,101781.72
2023-02-09T08:28:41.699Z,101791.56
2023-02-09T08:32:05.131Z,101790.28
2023-02-09T08:35:07.424Z,101789.56
2023-02-09T08:38:09.820Z,101787.53
2023-02-09T08:41:14.232Z,101784.31
2023-02-09T08:44:48.032Z,101785.19
2023-02-09T08:47:49.891Z,101791.19
2023-02-09T08:50:51.841Z,101788.09
2023-02-09T08:53:54.316Z,101786.88
2023-02-09T08:56:56.130Z,101787.19
2023-02-09T08:59:58.119Z,101790.72
2023-02-09T09:03:04.704Z,101798.31
2023-02-09T09:06:07.359Z,101793.91
2023-02-09T09:09:09.246Z,101791.28
2023-02-09T09:12:11.239Z,101786.59
2023-02-09T09:15:13.110Z,101784.06
2023-02-09T09:18:15.085Z,101772.38
2023-02-09T09:21:18.745Z,101781.59
2023-02-09T09:24:21.276Z,101785.91
2023-02-09T09:27:25.489Z,101779.56
2023-02-09T09:30:28.518Z,101776.13
2023-02-09T09:33:30.520Z,101775.06
2023-02-09T09:36:32.443Z,101766.69
2023-02-09T09:39:34.321Z,101761.78
2023-02-09T09:42:39.184Z,101774.66
2023-02-09T09:45:41.093Z,101772.34
2023-02-09T09:48:46.287Z,101775.28
2023-02-09T09:51:58.282Z,101755.66
2023-02-09T09:55:01.808Z,101757.41
2023-02-09T09:58:06.761Z,101753.66
2023-02-09T10:01:17.349Z,101751.13
2023-02-09T10:04:21.105Z,101745.91
2023-02-09T10:07:31.644Z,101748.06
2023-02-09T10:11:07.587Z,101743.69
2023-02-09T10:14:10.729Z,101733.81
2023-02-09T10:17:12.582Z,101724.50
2023-02-09T10:20:14.650Z,101728.25
2023-02-09T10:23:19.625Z,101718.56
2023-02-09T10:26:23.487Z,101711.13
2023-02-09T10:29:26.106Z,101711.50
2023-02-09T10:32:41.924Z,101704.13
2023-02-09T10:35:57.539Z,101703.19
2023-02-09T10:39:12.748Z,101707.69
2023-02-09T10:42:19.283Z,101704.06
2023-02-09T10:45:27.115Z,101708.41
2023-02-09T10:48:38.808Z,101696.44
2023-02-09T10:51:40.630Z,101693.88
2023-02-09T10:54:47.232Z,101700.53
2023-02-09T10:57:49.175Z,101699.84
2023-02-09T11:00:59.652Z,101697.53
2023-02-09T11:04:04.290Z,101696.84
2023-02-09T11:07:20.543Z,101697.00
2023-02-09T11:10:23.111Z,101699.72
2023-02-09T11:13:26.542Z,101698.94
2023-02-09T11:16:41.303Z,101704.66
2023-02-09T11:20:05.177Z,101697.03
2023-02-09T11:23:25.994Z,101698.56
2023-02-09T11:26:58.494Z,101690.22
2023-02-09T11:30:22.562Z,101691.09
2023-02-09T11:33:46.438Z,101692.91
2023-02-09T11:36:51.051Z,101699.84
2023-02-09T11:39:52.877Z,101700.78
2023-02-09T11:43:04.597Z,101700.72
2023-02-09T11:46:19.799Z,101687.03
2023-02-09T11:49:25.862Z,101679.53
2023-02-09T11:52:40.287Z,101680.47
2023-02-09T11:55:47.693Z,101678.78
2023-02-09T11:58:58.383Z,101667.81
2023-02-09T12:02:14.144Z,101666.91
2023-02-09T12:05:19.870Z,101670.41
2023-02-09T12:08:29.092Z,101659.22
2023-02-09T12:11:37.946Z,101657.53
2023-02-09T12:15:13.430Z,101658.53
2023-02-09T12:18:19.671Z,101656.75
2023-02-09T12:21:32.533Z,101660.19
2023-02-09T12:24:39.185Z,101648.25
2023-02-09T12:27:42.928Z,101648.22
2023-02-09T12:30:45.142Z,101649.06
2023-02-09T12:33:47.234Z,101637.25
2023-02-09T12:37:09.253Z,101634.63
2023-02-09T12:40:21.112Z,101628.56
2023-02-09T12:43:29.686Z,101626.00
2023-02-09T12:46:31.838Z,101619.09
2023-02-09T12:49:34.033Z,101615.94
2023-02-09T12:52:35.962Z,101620.91
2023-02-09T12:55:38.165Z,101616.78
2023-02-09T12:59:09.228Z,101615.00
2023-02-09T13:02:16.012Z,101598.16
2023-02-09T13:05:23.902Z,101604.94
2023-02-09T13:08:33.711Z,101614.06
2023-02-09T13:11:51.481Z,101607.41
2023-02-09T13:14:53.475Z,101606.63
2023-02-09T13:18:07.084Z,101599.00
2023-02-09T13:21:11.911Z,101594.75
2023-02-09T13:24:19.826Z,101597.28
2023-02-09T13:27:23.761Z,101591.34
2023-02-09T13:30:31.765Z,101590.56
2023-02-09T13:42:22.811Z,101592.88
2023-02-09T13:45:26.847Z,101583.63
2023-02-09T13:48:30.536Z,101592.13
2023-02-09T13:51:32.330Z,101582.78
2023-02-09T13:54:34.213Z,101582.00
2023-02-09T13:57:38.443Z,101578.66
2023-02-09T14:01:05.153Z,101587.03
2023-02-09T14:04:22.150Z,101575.97
2023-02-09T14:07:30.762Z,101574.22
2023-02-09T14:10:34.642Z,101569.97
2023-02-09T14:13:42.616Z,101567.38
2023-02-09T14:17:23.748Z,101574.13
2023-02-09T14:20:26.643Z,101562.25
2023-02-09T14:23:32.914Z,101564.81
2023-02-09T14:26:52.855Z,101563.91
2023-02-09T14:29:55.424Z,101552.84
2023-02-09T14:33:00.375Z,101544.31
2023-02-09T14:36:02.756Z,101553.63
2023-02-09T14:39:17.025Z,101549.34
2023-02-09T14:42:19.084Z,101547.59
2023-02-09T14:46:04.350Z,101543.31
2023-02-09T14:49:06.248Z,101551.72
2023-02-09T14:52:15.169Z,101546.59
2023-02-09T14:55:20.273Z,101541.50
2023-02-09T14:58:32.489Z,101541.56
2023-02-09T15:01:34.417Z,101532.13
2023-02-09T15:04:36.459Z,101533.06
2023-02-09T15:07:43.177Z,101534.66
2023-02-09T15:10:53.431Z,101530.34
2023-02-09T15:14:03.951Z,101534.47
2023-02-09T15:17:12.744Z,101521.59
2023-02-09T15:20:16.930Z,101525.81
2023-02-09T15:23:19.212Z,101517.28
2023-02-09T15:26:22.872Z,101515.41
2023-02-09T15:29:25.640Z,101520.31
2023-02-09T15:32:28.321Z,101510.91
2023-02-09T15:35:30.260Z,101513.25
2023-02-09T15:38:32.508Z,101515.66
2023-02-09T15:41:53.347Z,101511.44
2023-02-09T15:45:30.647Z,101519.81
2023-02-09T15:48:32.873Z,101518.84
2023-02-09T15:51:38.125Z,101516.22
2023-02-09T15:54:40.311Z,101514.34
2023-02-09T15:57:42.295Z,101514.25
2023-02-09T16:00:44.469Z,101515.84
2023-02-09T16:03:47.230Z,101520.72
2023-02-09T16:06:51.718Z,101525.72
2023-02-09T16:09:53.807Z,101520.50
2023-02-09T16:12:56.756Z,101516.38
2023-02-09T16:16:11.358Z,101517.03
2023-02-09T16:19:21.498Z,101511.91
2023-02-09T16:22:25.207Z,101514.38
2023-02-09T16:25:29.127Z,101508.16
2023-02-09T16:28:31.314Z,101514.00
2023-02-09T16:31:33.370Z,101519.91
2023-02-09T16:34:35.361Z,101517.41
2023-02-09T16:37:37.215Z,101520.63
2023-02-09T16:40:39.045Z,101530.06
2023-02-09T16:43:40.966Z,101527.59
2023-02-09T16:46:43.589Z,101522.44
2023-02-09T16:50:01.419Z,101513.03
2023-02-09T16:53:17.473Z,101519.00
2023-02-09T16:56:21.050Z,101520.78
2023-02-09T16:59:23.394Z,101515.63
2023-02-09T17:02:38.533Z,101523.25
2023-02-09T17:05:43.645Z,101517.19
2023-02-09T17:08:46.116Z,101517.22
2023-02-09T17:11:49.067Z,101516.25
2023-02-09T17:14:51.147Z,101511.78
2023-02-09T17:17:56.224Z,101517.81
2023-02-09T17:21:01.987Z,101503.41
2023-02-09T17:24:05.271Z,101516.78
2023-02-09T17:27:07.266Z,101516.72
2023-02-09T17:30:11.625Z,101508.16
2023-02-09T17:33:24.340Z,101516.50
2023-02-09T17:36:29.389Z,101514.72
2023-02-09T17:39:31.730Z,101515.63
2023-02-09T17:42:36.984Z,101506.38
2023-02-09T17:45:39.369Z,101513.09
2023-02-09T17:48:41.876Z,101515.59
2023-02-09T17:51:46.231Z,101510.59
2023-02-09T17:54:49.433Z,101514.66
2023-02-09T17:57:56.759Z,101514.72
2023-02-09T18:00:58.836Z,101511.22
2023-02-09T18:04:02.305Z,101512.91
2023-02-09T18:07:04.201Z,101503.56
2023-02-09T18:10:06.959Z,101514.78
2023-02-09T18:13:20.507Z,101511.25
2023-02-09T18:16:22.569Z,101515.44
2023-02-09T18:19:25.838Z,101513.75
2023-02-09T18:22:27.977Z,101517.16
2023-02-09T18:25:32.371Z,101519.69
2023-02-09T18:28:34.457Z,101516.22
2023-02-09T18:31:37.797Z,101505.19
2023-02-09T18:34:40.378Z,101508.81
2023-02-09T18:37:42.458Z,101508.94
2023-02-09T18:40:45.268Z,101511.47
2023-02-09T18:43:48.020Z,101519.94
2023-02-09T18:46:50.142Z,101523.84
2023-02-09T18:49:56.254Z,101511.91
2023-02-09T18:53:02.800Z,101521.31
2023-02-09T18:56:05.176Z,101510.38
2023-02-09T18:59:08.118Z,101517.03
2023-02-09T19:02:12.989Z,101514.34
2023-02-09T19:05:17.153Z,101509.28
2023-02-09T19:08:19.110Z,101512.44
2023-02-09T19:11:22.624Z,101511.69
2023-02-09T19:14:39.906Z,101511.91
2023-02-09T19:17:42.218Z,101506.84
2023-02-09T19:20:44.063Z,101500.06
2023-02-09T19:23:46.616Z,101510.06
2023-02-09T19:26:48.780Z,101513.53
2023-02-09T19:29:55.467Z,101505.84
2023-02-09T19:32:58.592Z,101512.22
2023-02-09T19:36:00.982Z,101510.56
2023-02-09T19:39:03.493Z,101503.19
2023-02-09T19:42:06.697Z,101510.78
2023-02-09T19:45:09.300Z,101507.41
2023-02-09T19:48:13.702Z,101507.53
2023-02-09T19:51:15.889Z,101509.13
2023-02-09T19:54:18.551Z,101508.06
2023-02-09T19:57:22.045Z,101509.78
2023-02-09T20:00:24.238Z,101508.16
2023-02-09T20:03:26.431Z,101514.06
2023-02-09T20:06:30.722Z,101512.19
2023-02-09T20:09:33.242Z,101503.53
2023-02-09T20:12:35.554Z,101492.44
2023-02-09T20:15:43.596Z,101485.69
2023-02-09T20:18:49.321Z,101481.44
2023-02-09T20:21:51.544Z,101481.44
2023-02-09T20:24:54.996Z,101482.19
2023-02-09T20:27:57.205Z,101481.25
2023-02-09T20:30:59.481Z,101478.66
2023-02-09T20:34:05.360Z,101483.63
2023-02-09T20:37:07.615Z,101489.44
2023-02-09T20:40:11.451Z,101477.53
2023-02-09T20:43:32.417Z,101477.44
2023-02-09T20:46:53.949Z,101486.75
2023-02-09T20:49:59.725Z,101475.75
2023-02-09T20:53:02.601Z,101481.69
2023-02-09T20:56:05.046Z,101476.41
2023-02-09T20:59:07.474Z,101484.03
2023-02-09T21:02:12.344Z,101479.84
2023-02-09T21:05:14.594Z,101477.28
2023-02-09T21:08:16.508Z,101488.19
2023-02-09T21:11:19.628Z,101476.41
2023-02-09T21:14:32.278Z,101487.28
2023-02-09T21:17:35.428Z,101483.91
2023-02-09T21:20:38.137Z,101484.78
2023-02-09T21:23:40.029Z,101484.72
2023-02-09T21:26:42.835Z,101482.66
2023-02-09T21:29:45.045Z,101472.66
2023-02-09T21:32:47.426Z,101477.88
2023-02-09T21:35:49.589Z,101482.09
2023-02-09T21:38:51.593Z,101471.63
2023-02-09T21:42:12.970Z,101471.91
2023-02-09T21:45:15.006Z,101466.72
2023-02-09T21:48:16.905Z,101473.47
2023-02-09T21:51:23.330Z,101471.56
2023-02-09T21:54:26.921Z,101469.03
2023-02-09T21:57:29.957Z,101465.63
2023-02-09T22:00:31.939Z,101469.97
2023-02-09T22:03:33.793Z,101465.91
2023-02-09T22:06:35.606Z,101464.25
2023-02-09T22:09:37.982Z,101473.41
2023-02-09T22:12:40.255Z,101467.59
2023-02-09T22:15:43.394Z,101467.75
2023-02-09T22:18:45.796Z,101465.03
2023-02-09T22:21:47.650Z,101463.50
2023-02-09T22:24:49.568Z,101465.31
2023-02-09T22:27:51.804Z,101466.81
2023-02-09T22:30:54.986Z,101468.72
2023-02-09T22:33:58.489Z,101466.28
2023-02-09T22:37:00.401Z,101463.03
2023-02-09T22:40:02.274Z,101465.47
2023-02-09T22:43:04.618Z,101456.88
2023-02-09T22:46:06.462Z,101453.31
2023-02-09T22:49:12.888Z,101461.81
2023-02-09T22:52:14.893Z,101455.34
2023-02-09T22:55:16.765Z,101452.28
2023-02-09T22:58:18.688Z,101446.59
2023-02-09T23:01:21.285Z,101446.13
2023-02-09T23:04:23.177Z,101448.81
2023-02-09T23:07:25.565Z,101453.66
2023-02-09T23:10:27.543Z,101448.22
2023-02-09T23:13:32.173Z,101438.91
2023-02-09T23:16:34.183Z,101440.78
2023-02-09T23:19:36.118Z,101428.75
2023-02-09T23:22:38.075Z,101440.03
2023-02-09T23:25:40.056Z,101436.66
2023-02-09T23:28:42.207Z,101429.00
2023-02-09T23:31:45.262Z,101432.69
2023-02-09T23:34:47.166Z,101431.16
2023-02-09T23:37:48.947Z,101422.88
2023-02-09T23:40:50.878Z,101425.41
2023-02-09T23:43:53.984Z,101411.81
2023-02-09T23:46:55.946Z,101424.38
2023-02-09T23:49:57.967Z,101416.38
2023-02-09T23:52:59.865Z,101426.34
2023-02-09T23:56:05.124Z,101425.44
2023-02-09T23:59:09.524Z,101426.41
